アンタナナリボ の空港の天気 - METARとTAF

イヴァト空港(アンタナナリボ) ( FMMI / TNR ) - マダガスカル アンタナナリボ
飛行場実況気象(Metar)
観測時間08/17 14:30 EAT (08/17 11:30 UTC)
風向・風速南 3m/s
視程10km以上
天気現象
なし
気温25℃
湿度19%
気圧1020hPa
METARFMMI 171130Z 18006KT 130V240 CAVOK 25/00 Q1020 NOSIG
過去の天気等 Google飛行場航空写真 Wunderground天気予報

過去48時間のMETAR

飛行場予報(TAF)
発表時間: -
18日3時 EAT から 確率 40% で
視程400m
天気現象
全天の8割程度の雲 雲底高度 120m

FMMI 171100Z 1712/1818 VRB04KT 9999 FEW020
PROB40 1800/1806 0400 FG BKN004